Time;durP1;ratioP1;P1;durP2;ratioP2;P2;SDS_P1;SDS_P2;PMS_P1;PMS_P2;Temp;Humidity;BMP_temperature;BMP_pressure;BME280_temperature;BME280_humidity;BME280_pressure;Samples;Min_cycle;Max_cycle;Signal;HPM_P1;HPM_P2
2022/08/19 00:01:47;;;;;;;;;;;;;;;16.97;nan;101195.53;5033354;28;20376;-55
2022/08/19 00:04:13;;;;;;;;;;;;;;;16.95;nan;101196.56;5035090;28;19917;-55
2022/08/19 00:06:39;;;;;;;;;;;;;;;16.92;nan;101194.06;5033564;28;19925;-56
2022/08/19 00:09:06;;;;;;;;;;;;;;;16.88;nan;101194.22;5034811;28;20359;-55
2022/08/19 00:11:31;;;;;;;;;;;;;;;16.85;nan;101191.72;5034782;28;20024;-57
2022/08/19 00:13:56;;;;;;;;;;;;;;;16.84;nan;101191.81;5033828;28;20391;-56
2022/08/19 00:16:22;;;;;;;;;;;;;;;16.83;nan;101190.94;5033365;28;19928;-57
2022/08/19 00:18:47;;;;;;;;;;;;;;;16.81;nan;101189.31;5032775;28;19924;-55
2022/08/19 00:21:14;;;;;;;;;;;;;;;16.80;nan;101195.56;5034656;28;19943;-55
2022/08/19 00:23:39;;;;;;;;;;;;;;;16.76;nan;101194.84;5033218;28;19928;-55
2022/08/19 00:26:04;;;;;;;;;;;;;;;16.74;nan;101206.50;5034373;28;19917;-56
2022/08/19 00:28:30;;;;;;;;;;;;;;;16.72;nan;101198.59;5034137;28;19924;-55
2022/08/19 00:30:55;;;;;;;;;;;;;;;16.71;nan;101204.00;5032432;28;19931;-53
2022/08/19 00:33:21;;;;;;;;;;;;;;;16.68;nan;101196.19;5032597;28;19968;-55
2022/08/19 00:35:46;;;;;;;;;;;;;;;16.69;nan;101201.44;5034142;28;20371;-53
2022/08/19 00:38:11;;;;;;;;;;;;;;;16.68;nan;101193.53;5034037;28;19956;-56
2022/08/19 00:40:36;;;;;;;;;;;;;;;16.67;nan;101197.13;5016670;28;19913;-54
2022/08/19 00:43:07;;;;;;;;;;;;;;;16.64;nan;101203.47;5033894;28;20539;-54
2022/08/19 00:45:33;;;;;;;;;;;;;;;16.61;nan;101200.97;5034101;28;20428;-55
2022/08/19 00:48:03;;;;;;;;;;;;;;;16.61;nan;101205.41;5034368;28;19917;-56
2022/08/19 00:50:29;;;;;;;;;;;;;;;16.64;nan;101195.50;5033968;28;19924;-54
2022/08/19 00:52:54;;;;;;;;;;;;;;;16.66;nan;101203.41;5032328;28;19925;-56
2022/08/19 00:55:20;;;;;;;;;;;;;;;16.67;nan;101205.97;5032974;28;20292;-56
2022/08/19 00:57:48;;;;;;;;;;;;;;;16.67;nan;101213.94;5032589;28;19944;-55
2022/08/19 01:00:15;;;;;;;;;;;;;;;16.66;nan;101201.59;5032567;28;19928;-56
2022/08/19 01:02:41;;;;;;;;;;;;;;;16.65;nan;101199.88;5033645;28;19913;-55
2022/08/19 01:05:08;;;;;;;;;;;;;;;16.65;nan;101204.34;5034140;28;19917;-55
2022/08/19 01:07:34;;;;;;;;;;;;;;;16.63;nan;101206.22;5032631;28;20395;-54
2022/08/19 01:09:59;;;;;;;;;;;;;;;16.62;nan;101201.81;5034033;28;19975;-55
2022/08/19 01:12:25;;;;;;;;;;;;;;;16.61;nan;101208.94;5032870;28;19979;-56
2022/08/19 01:14:50;;;;;;;;;;;;;;;16.60;nan;101217.88;5032009;28;19921;-57
2022/08/19 01:17:15;;;;;;;;;;;;;;;16.60;nan;101212.56;5033584;28;19917;-56
2022/08/19 01:19:41;;;;;;;;;;;;;;;16.61;nan;101208.94;5032229;28;20369;-57
2022/08/19 01:22:15;;;;;;;;;;;;;;;16.63;nan;101219.50;5032232;28;19921;-56
2022/08/19 01:24:41;;;;;;;;;;;;;;;16.64;nan;101213.22;5033675;28;19913;-56
2022/08/19 01:27:06;;;;;;;;;;;;;;;16.64;nan;101211.44;5033504;28;19967;-57
2022/08/19 01:29:31;;;;;;;;;;;;;;;16.64;nan;101222.06;5032174;28;19913;-57
2022/08/19 01:31:57;;;;;;;;;;;;;;;16.66;nan;101217.56;5033414;28;20023;-53
2022/08/19 01:34:23;;;;;;;;;;;;;;;16.68;nan;101220.13;5032109;28;20073;-58
2022/08/19 01:36:48;;;;;;;;;;;;;;;16.70;nan;101220.91;5033529;28;20334;-53
2022/08/19 01:39:19;;;;;;;;;;;;;;;16.70;nan;101218.22;5033274;28;20261;-55
2022/08/19 01:41:44;;;;;;;;;;;;;;;16.70;nan;101215.56;5033357;28;19917;-53
2022/08/19 01:44:09;;;;;;;;;;;;;;;16.68;nan;101222.78;5033236;28;19962;-55
2022/08/19 01:46:35;;;;;;;;;;;;;;;16.68;nan;101220.13;5015556;28;20003;-57
2022/08/19 01:49:00;;;;;;;;;;;;;;;16.66;nan;101214.03;5033073;28;19917;-55
2022/08/19 01:51:26;;;;;;;;;;;;;;;16.64;nan;101213.22;5031829;28;20008;-57
2022/08/19 01:53:51;;;;;;;;;;;;;;;16.63;nan;101220.38;5031709;28;20405;-54
2022/08/19 01:56:17;;;;;;;;;;;;;;;16.61;nan;101213.38;5033088;28;19944;-55
2022/08/19 01:58:48;;;;;;;;;;;;;;;16.59;nan;101208.16;5032918;28;19915;-55
2022/08/19 02:01:13;;;;;;;;;;;;;;;16.57;nan;101207.41;5031768;28;19959;-56
2022/08/19 02:03:38;;;;;;;;;;;;;;;16.57;nan;101203.88;5032217;28;19960;-52
2022/08/19 02:06:05;;;;;;;;;;;;;;;16.56;nan;101202.13;5031520;28;20426;-54
2022/08/19 02:08:30;;;;;;;;;;;;;;;16.55;nan;101195.97;5032961;28;20482;-56
2022/08/19 02:10:56;;;;;;;;;;;;;;;16.54;nan;101204.03;5032827;28;19975;-56
2022/08/19 02:13:21;;;;;;;;;;;;;;;16.52;nan;101204.06;5031714;28;19920;-55
2022/08/19 02:15:46;;;;;;;;;;;;;;;16.51;nan;101214.78;5031476;28;20023;-55
2022/08/19 02:18:11;;;;;;;;;;;;;;;16.51;nan;101204.16;5014827;28;19995;-57
2022/08/19 02:20:37;;;;;;;;;;;;;;;16.54;nan;101212.00;5032742;28;19921;-56
2022/08/19 02:23:03;;;;;;;;;;;;;;;16.56;nan;101207.47;5032940;28;19913;-57
2022/08/19 02:25:28;;;;;;;;;;;;;;;16.59;nan;101200.19;5031902;28;19923;-54
2022/08/19 02:27:53;;;;;;;;;;;;;;;16.61;nan;101208.06;5031379;28;20418;-56
2022/08/19 02:30:19;;;;;;;;;;;;;;;16.65;nan;101207.00;5032556;28;19920;-54
2022/08/19 02:32:44;;;;;;;;;;;;;;;16.65;nan;101204.34;5032363;28;19966;-56
2022/08/19 02:35:10;;;;;;;;;;;;;;;16.67;nan;101205.09;5032660;28;19915;-55
2022/08/19 02:40:18;;;;;;;;;;;;;;;16.71;nan;101196.03;5032491;28;19974;-55
2022/08/19 02:42:45;;;;;;;;;;;;;;;16.75;nan;101200.28;5032341;28;19917;-55
2022/08/19 02:45:10;;;;;;;;;;;;;;;16.77;nan;101190.41;5032385;28;19917;-56
2022/08/19 02:47:35;;;;;;;;;;;;;;;16.83;nan;101190.09;5032510;28;19924;-56
2022/08/19 02:50:01;;;;;;;;;;;;;;;16.87;nan;101188.97;5031314;28;19967;-56
2022/08/19 02:52:27;;;;;;;;;;;;;;;16.90;nan;101180.81;5032545;28;19921;-54
2022/08/19 02:54:52;;;;;;;;;;;;;;;16.93;nan;101170.03;5031063;28;19912;-55
2022/08/19 02:57:17;;;;;;;;;;;;;;;16.97;nan;101163.63;5031282;28;19913;-55
2022/08/19 02:59:42;;;;;;;;;;;;;;;16.98;nan;101173.31;5031973;28;20359;-54
2022/08/19 03:02:08;;;;;;;;;;;;;;;17.00;nan;101170.56;5031419;28;19917;-51
2022/08/19 03:04:33;;;;;;;;;;;;;;;17.02;nan;101163.34;5032234;28;20284;-57
2022/08/19 03:06:58;;;;;;;;;;;;;;;17.01;nan;101165.19;5032521;28;20028;-53
2022/08/19 03:09:23;;;;;;;;;;;;;;;17.03;nan;101163.28;5032194;28;19924;-57
2022/08/19 03:11:50;;;;;;;;;;;;;;;17.02;nan;101158.03;5032249;28;19924;-56
2022/08/19 03:14:15;;;;;;;;;;;;;;;16.97;nan;101163.63;5032515;28;20388;-58
2022/08/19 03:16:41;;;;;;;;;;;;;;;16.94;nan;101166.44;5034894;28;19913;-55
2022/08/19 03:19:07;;;;;;;;;;;;;;;16.96;nan;101166.38;5036101;28;19913;-54
2022/08/19 03:21:32;;;;;;;;;;;;;;;16.94;nan;101165.56;5035646;28;20384;-55
2022/08/19 03:23:59;;;;;;;;;;;;;;;16.93;nan;101172.69;5034358;28;19920;-56
2022/08/19 03:26:24;;;;;;;;;;;;;;;16.90;nan;101172.03;5035812;28;19913;-53
2022/08/19 03:28:50;;;;;;;;;;;;;;;16.91;nan;101171.06;5034379;28;20372;-55
2022/08/19 03:31:16;;;;;;;;;;;;;;;16.89;nan;101168.50;5035836;28;19920;-53
2022/08/19 03:33:41;;;;;;;;;;;;;;;16.90;nan;101164.03;5034605;28;19913;-55
2022/08/19 03:36:08;;;;;;;;;;;;;;;16.88;nan;101159.66;5035380;28;19971;-57
2022/08/19 03:38:34;;;;;;;;;;;;;;;16.91;nan;101169.25;5035393;28;19975;-56
2022/08/19 03:41:06;;;;;;;;;;;;;;;16.91;nan;101165.75;5034227;28;19955;-56
2022/08/19 03:43:31;;;;;;;;;;;;;;;16.92;nan;101167.47;5035365;28;20000;-56
2022/08/19 03:46:04;;;;;;;;;;;;;;;16.93;nan;101164.72;5035527;28;19940;-57
2022/08/19 03:48:29;;;;;;;;;;;;;;;16.93;nan;101159.41;5035361;28;19913;-56
2022/08/19 03:50:55;;;;;;;;;;;;;;;16.90;nan;101162.22;5035189;28;20437;-55
2022/08/19 03:53:20;;;;;;;;;;;;;;;16.88;nan;101174.75;5034073;28;19909;-56
2022/08/19 03:55:45;;;;;;;;;;;;;;;16.85;nan;101172.25;5035125;28;19917;-55
2022/08/19 03:58:11;;;;;;;;;;;;;;;16.84;nan;101174.03;5035111;28;19921;-57
2022/08/19 04:00:36;;;;;;;;;;;;;;;16.85;nan;101167.78;5017328;28;19919;-54
2022/08/19 04:03:02;;;;;;;;;;;;;;;16.84;nan;101183.84;5034005;28;19920;-57
2022/08/19 04:05:28;;;;;;;;;;;;;;;16.87;nan;101186.31;5033940;28;20009;-56
2022/08/19 04:07:54;;;;;;;;;;;;;;;16.93;nan;101175.34;5033735;28;19916;-57
2022/08/19 04:10:20;;;;;;;;;;;;;;;17.01;nan;101189.13;5034960;28;19917;-57
2022/08/19 04:12:46;;;;;;;;;;;;;;;17.07;nan;101187.94;5033601;28;19917;-56
2022/08/19 04:15:11;;;;;;;;;;;;;;;17.09;nan;101186.91;5035000;28;19921;-55
2022/08/19 04:17:36;;;;;;;;;;;;;;;17.10;nan;101193.09;5034943;28;20067;-54
2022/08/19 04:20:02;;;;;;;;;;;;;;;17.10;nan;101185.09;5034797;28;19964;-55
2022/08/19 04:22:27;;;;;;;;;;;;;;;17.11;nan;101187.66;5034700;28;19971;-56
2022/08/19 04:24:52;;;;;;;;;;;;;;;17.12;nan;101194.72;5034608;28;19924;-53
2022/08/19 04:27:17;;;;;;;;;;;;;;;17.13;nan;101179.63;5033747;28;20327;-56
2022/08/19 04:29:43;;;;;;;;;;;;;;;17.11;nan;101190.31;5034851;28;19971;-57
2022/08/19 04:32:08;;;;;;;;;;;;;;;17.14;nan;101190.16;5034677;28;19960;-56
2022/08/19 04:34:33;;;;;;;;;;;;;;;17.19;nan;101193.44;5034397;28;19936;-58
2022/08/19 04:36:59;;;;;;;;;;;;;;;17.24;nan;101190.53;5034632;28;19983;-57
2022/08/19 04:44:56;;;;;;;;;;;;;;;17.42;nan;101186.88;5033463;28;19920;-56
2022/08/19 04:47:22;;;;;;;;;;;;;;;17.46;nan;101191.06;5034396;28;19921;-56
2022/08/19 04:49:48;;;;;;;;;;;;;;;17.48;nan;101188.34;5033011;28;19913;-55
2022/08/19 04:52:13;;;;;;;;;;;;;;;17.51;nan;101188.16;5033939;28;19920;-57
2022/08/19 04:54:39;;;;;;;;;;;;;;;17.55;nan;101187.94;5034077;28;20391;-54
2022/08/19 04:57:06;;;;;;;;;;;;;;;17.59;nan;101186.84;5034509;28;19917;-56
2022/08/19 04:59:33;;;;;;;;;;;;;;;17.67;nan;101195.25;5033910;28;20028;-56
2022/08/19 05:01:58;;;;;;;;;;;;;;;17.75;nan;101184.16;5033960;28;19959;-55
2022/08/19 05:04:23;;;;;;;;;;;;;;;17.81;nan;101189.13;5033986;28;20335;-55
2022/08/19 05:06:50;;;;;;;;;;;;;;;17.86;nan;101192.41;5033781;28;19924;-56
2022/08/19 05:09:16;;;;;;;;;;;;;;;17.95;nan;101194.53;5033734;28;20364;-58
2022/08/19 05:11:41;;;;;;;;;;;;;;;18.03;nan;101186.09;5032662;28;19998;-57
2022/08/19 05:14:07;;;;;;;;;;;;;;;18.08;nan;101192.88;5033782;28;19963;-56
2022/08/19 05:16:32;;;;;;;;;;;;;;;18.15;nan;101199.59;5032527;28;20064;-55
2022/08/19 05:24:25;;;;;;;;;;;;;;;18.33;nan;101185.16;5032855;28;19920;-55
2022/08/19 05:26:51;;;;;;;;;;;;;;;18.38;nan;101192.91;5033436;28;19921;-55
2022/08/19 05:29:18;;;;;;;;;;;;;;;18.42;nan;101189.09;5032209;28;19913;-56
2022/08/19 05:31:43;;;;;;;;;;;;;;;18.48;nan;101180.72;5033303;28;19920;-59
2022/08/19 05:34:09;;;;;;;;;;;;;;;18.54;nan;101180.41;5033557;28;20310;-57
2022/08/19 05:36:39;;;;;;;;;;;;;;;18.57;nan;101177.56;5033383;28;19939;-56
2022/08/19 05:39:05;;;;;;;;;;;;;;;18.59;nan;101177.47;5032223;28;19967;-57
2022/08/19 05:41:30;;;;;;;;;;;;;;;18.61;nan;101173.78;5032116;28;20318;-57
2022/08/19 05:43:56;;;;;;;;;;;;;;;18.63;nan;101179.84;5033248;28;19916;-54
2022/08/19 05:46:22;;;;;;;;;;;;;;;18.63;nan;101177.19;5031981;28;19952;-57
2022/08/19 05:48:48;;;;;;;;;;;;;;;18.65;nan;101171.78;5033317;28;20372;-57
2022/08/19 05:51:13;;;;;;;;;;;;;;;18.72;nan;101170.44;5033130;28;19971;-57
2022/08/19 05:53:38;;;;;;;;;;;;;;;18.72;nan;101173.09;5033183;28;20276;-54
2022/08/19 05:56:07;;;;;;;;;;;;;;;18.76;nan;101177.31;5031656;28;19913;-57
2022/08/19 05:58:33;;;;;;;;;;;;;;;18.81;nan;101175.22;5032931;28;19921;-57
2022/08/19 06:01:04;;;;;;;;;;;;;;;18.88;nan;101176.56;5032745;28;20039;-56
2022/08/19 06:03:29;;;;;;;;;;;;;;;18.94;nan;101178.88;5031984;28;19913;-58
2022/08/19 06:05:54;;;;;;;;;;;;;;;19.00;nan;101175.81;5031809;28;19940;-57
2022/08/19 06:08:20;;;;;;;;;;;;;;;19.02;nan;101173.91;5032882;28;19917;-56
2022/08/19 06:10:45;;;;;;;;;;;;;;;19.08;nan;101170.84;5032986;28;19920;-57
2022/08/19 06:13:10;;;;;;;;;;;;;;;19.16;nan;101170.38;5032948;28;19917;-55
2022/08/19 06:15:35;;;;;;;;;;;;;;;19.18;nan;101171.97;5032925;28;19968;-56
2022/08/19 06:18:00;;;;;;;;;;;;;;;19.23;nan;101177.91;5032673;28;19967;-54
2022/08/19 06:20:26;;;;;;;;;;;;;;;19.29;nan;101180.19;5032653;28;19928;-55
2022/08/19 06:22:51;;;;;;;;;;;;;;;19.37;nan;101177.03;5032441;28;19923;-53
2022/08/19 06:25:16;;;;;;;;;;;;;;;19.40;nan;101184.88;5032798;28;19924;-52
2022/08/19 06:27:42;;;;;;;;;;;;;;;19.46;nan;101179.16;5032696;28;19913;-56
2022/08/19 06:30:07;;;;;;;;;;;;;;;19.48;nan;101182.56;5032599;28;20419;-55
2022/08/19 06:32:33;;;;;;;;;;;;;;;19.49;nan;101171.81;5031553;28;19909;-55
2022/08/19 06:34:58;;;;;;;;;;;;;;;19.54;nan;101176.84;5031493;28;19917;-53
2022/08/19 06:37:23;;;;;;;;;;;;;;;19.64;nan;101178.81;5031466;28;19963;-55
2022/08/19 06:39:49;;;;;;;;;;;;;;;19.78;nan;101185.09;5032401;28;19917;-53
2022/08/19 06:42:16;;;;;;;;;;;;;;;19.89;nan;101185.25;5031391;28;19967;-54
2022/08/19 06:44:42;;;;;;;;;;;;;;;19.98;nan;101176.63;5031104;28;19917;-52
2022/08/19 06:47:08;;;;;;;;;;;;;;;20.14;nan;101180.84;5032731;28;19920;-56
2022/08/19 06:49:34;;;;;;;;;;;;;;;20.30;nan;101187.88;5032157;28;19943;-56
2022/08/19 06:51:59;;;;;;;;;;;;;;;20.40;nan;101187.13;5035137;28;20383;-55
2022/08/19 06:54:25;;;;;;;;;;;;;;;20.53;nan;101189.84;5036356;28;19917;-53
2022/08/19 06:56:50;;;;;;;;;;;;;;;20.63;nan;101181.09;5035143;28;19916;-57
2022/08/19 06:59:17;;;;;;;;;;;;;;;20.88;nan;101190.94;5036098;28;19917;-56
2022/08/19 07:01:47;;;;;;;;;;;;;;;21.00;nan;101190.09;5036472;28;20000;-55
2022/08/19 07:04:13;;;;;;;;;;;;;;;21.09;nan;101196.66;5035039;28;19913;-57
2022/08/19 07:06:39;;;;;;;;;;;;;;;21.20;nan;101192.25;5036535;28;19920;-54
2022/08/19 07:09:05;;;;;;;;;;;;;;;21.32;nan;101193.22;5036221;28;19913;-55
2022/08/19 07:11:30;;;;;;;;;;;;;;;21.48;nan;101195.66;5034774;28;20262;-57
2022/08/19 07:13:56;;;;;;;;;;;;;;;21.66;nan;101211.22;5034732;28;20324;-55
2022/08/19 07:16:21;;;;;;;;;;;;;;;21.71;nan;101217.13;5036281;28;19917;-55
2022/08/19 07:18:48;;;;;;;;;;;;;;;21.78;nan;101229.09;5034789;28;19975;-56
2022/08/19 07:21:15;;;;;;;;;;;;;;;21.79;nan;101228.16;5035858;28;19988;-53
2022/08/19 07:23:40;;;;;;;;;;;;;;;21.73;nan;101225.91;5035748;28;19913;-54
2022/08/19 07:26:10;;;;;;;;;;;;;;;21.63;nan;101246.28;5034427;28;19936;-54
2022/08/19 07:28:38;;;;;;;;;;;;;;;21.33;nan;101202.97;5035628;28;19921;-56
2022/08/19 07:31:04;;;;;;;;;;;;;;;21.55;nan;101232.59;5035799;28;20304;-57
2022/08/19 07:33:32;;;;;;;;;;;;;;;21.65;nan;101224.75;5034562;28;19920;-55
2022/08/19 07:35:57;;;;;;;;;;;;;;;21.80;nan;101220.97;5035628;28;20012;-58
2022/08/19 07:38:22;;;;;;;;;;;;;;;22.03;nan;101227.34;5035495;28;19940;-55
2022/08/19 07:40:47;;;;;;;;;;;;;;;22.14;nan;101224.72;5034269;28;19963;-55
2022/08/19 07:43:14;;;;;;;;;;;;;;;22.23;nan;101224.91;5034293;28;19921;-54
2022/08/19 07:45:40;;;;;;;;;;;;;;;22.38;nan;101230.94;5034798;28;19919;-56
2022/08/19 07:48:05;;;;;;;;;;;;;;;22.47;nan;101229.38;5035082;28;19993;-56
2022/08/19 07:50:30;;;;;;;;;;;;;;;22.51;nan;101236.22;5034156;28;19921;-55
2022/08/19 07:52:56;;;;;;;;;;;;;;;22.45;nan;101237.53;5035112;28;19913;-53
2022/08/19 07:55:23;;;;;;;;;;;;;;;22.34;nan;101235.66;5035134;28;19924;-52
2022/08/19 07:57:48;;;;;;;;;;;;;;;22.27;nan;101229.03;5034954;28;20372;-55
2022/08/19 08:00:14;;;;;;;;;;;;;;;22.26;nan;101238.09;5033403;28;19924;-53
2022/08/19 08:02:42;;;;;;;;;;;;;;;22.13;nan;101239.09;5034059;28;19918;-56
2022/08/19 08:10:35;;;;;;;;;;;;;;;21.93;nan;101245.91;5035249;28;19924;-55
2022/08/19 08:13:00;;;;;;;;;;;;;;;21.92;nan;101252.25;5034936;28;19913;-55
2022/08/19 08:15:26;;;;;;;;;;;;;;;21.95;nan;101249.34;5034984;28;20319;-51
2022/08/19 08:17:51;;;;;;;;;;;;;;;22.26;nan;101242.59;5033633;28;20330;-56
2022/08/19 08:20:17;;;;;;;;;;;;;;;22.77;nan;101244.03;5034661;28;19924;-56
2022/08/19 08:25:28;;;;;;;;;;;;;;;23.29;nan;101269.53;5034715;28;19920;-56
2022/08/19 08:27:53;;;;;;;;;;;;;;;23.42;nan;101270.28;5033548;28;19921;-55
2022/08/19 08:30:21;;;;;;;;;;;;;;;23.41;nan;101272.13;5034417;28;19917;-55
2022/08/19 08:32:47;;;;;;;;;;;;;;;23.32;nan;101271.97;5034205;28;19939;-56
2022/08/19 08:35:13;;;;;;;;;;;;;;;23.20;nan;101287.22;5033914;28;19913;-54
2022/08/19 08:37:38;;;;;;;;;;;;;;;23.20;nan;101276.47;5032262;28;20411;-53
2022/08/19 08:40:11;;;;;;;;;;;;;;;23.17;nan;101279.41;5033167;28;19913;-54
2022/08/19 08:42:36;;;;;;;;;;;;;;;23.10;nan;101271.94;5032468;28;19920;-54
2022/08/19 08:45:04;;;;;;;;;;;;;;;23.12;nan;101275.34;5033162;28;19913;-53
2022/08/19 08:47:31;;;;;;;;;;;;;;;23.43;nan;101264.81;5016588;28;19959;-56
2022/08/19 08:49:59;;;;;;;;;;;;;;;24.21;nan;101275.50;5032858;28;19960;-55
2022/08/19 08:52:25;;;;;;;;;;;;;;;25.19;nan;101296.75;5032911;28;19917;-55
2022/08/19 08:54:52;;;;;;;;;;;;;;;25.83;nan;101301.94;5033008;28;19921;-53
2022/08/19 08:57:37;;;;;;;;;;;;;;;26.10;nan;101301.28;5032824;28;19974;-55
2022/08/19 09:00:05;;;;;;;;;;;;;;;26.49;nan;101296.84;5032503;28;19925;-55
2022/08/19 09:02:31;;;;;;;;;;;;;;;26.78;nan;101309.38;5034845;28;20391;-54
2022/08/19 09:04:56;;;;;;;;;;;;;;;26.96;nan;101330.31;5033872;28;19921;-52
2022/08/19 09:07:24;;;;;;;;;;;;;;;26.49;nan;101331.94;5032729;28;20055;-55
2022/08/19 09:09:51;;;;;;;;;;;;;;;25.95;nan;101326.97;5033619;28;20372;-54
2022/08/19 09:12:20;;;;;;;;;;;;;;;25.63;nan;101324.38;5033357;28;19960;-51
2022/08/19 09:15:04;;;;;;;;;;;;;;;25.19;nan;101315.59;5015731;28;19917;-52
2022/08/19 09:17:30;;;;;;;;;;;;;;;24.75;nan;101312.28;5032544;28;19985;-56
2022/08/19 09:20:00;;;;;;;;;;;;;;;24.49;nan;101307.22;5033636;28;19956;-54
2022/08/19 09:22:26;;;;;;;;;;;;;;;24.30;nan;101309.72;5033755;28;19920;-56
2022/08/19 09:24:52;;;;;;;;;;;;;;;24.14;nan;101309.25;5033600;28;19917;-54
2022/08/19 09:27:17;;;;;;;;;;;;;;;24.01;nan;101314.75;5032353;28;19913;-54
2022/08/19 09:29:43;;;;;;;;;;;;;;;23.79;nan;101306.69;5033719;28;20418;-56
2022/08/19 09:32:08;;;;;;;;;;;;;;;23.67;nan;101301.47;5034087;28;20023;-55
2022/08/19 09:34:33;;;;;;;;;;;;;;;23.44;nan;101303.25;5033312;28;20325;-55
2022/08/19 09:36:59;;;;;;;;;;;;;;;23.20;nan;101307.84;5033460;28;19913;-55
2022/08/19 09:39:25;;;;;;;;;;;;;;;22.90;nan;101308.38;5031691;28;20023;-57
2022/08/19 09:41:50;;;;;;;;;;;;;;;22.83;nan;101309.81;5033053;28;20367;-54
2022/08/19 09:44:15;;;;;;;;;;;;;;;22.84;nan;101301.66;5032021;28;19921;-55
2022/08/19 09:46:41;;;;;;;;;;;;;;;22.94;nan;101304.50;5030976;28;19916;-53
2022/08/19 09:49:06;;;;;;;;;;;;;;;23.03;nan;101300.25;5033100;28;19923;-54
2022/08/19 09:51:31;;;;;;;;;;;;;;;23.08;nan;101309.66;5033078;28;19967;-53
2022/08/19 09:53:58;;;;;;;;;;;;;;;23.08;nan;101298.06;5031715;28;19928;-55
2022/08/19 09:56:24;;;;;;;;;;;;;;;23.09;nan;101310.50;5032716;28;19963;-56
2022/08/19 09:58:49;;;;;;;;;;;;;;;23.12;nan;101304.88;5033057;28;19917;-54
2022/08/19 10:01:15;;;;;;;;;;;;;;;23.24;nan;101306.63;5031692;28;19956;-54
2022/08/19 10:03:40;;;;;;;;;;;;;;;23.41;nan;101314.25;5031975;28;19966;-52
2022/08/19 10:06:06;;;;;;;;;;;;;;;23.63;nan;101311.59;5032883;28;20012;-54
2022/08/19 10:08:32;;;;;;;;;;;;;;;23.86;nan;101320.50;5032765;28;20378;-54
2022/08/19 10:10:58;;;;;;;;;;;;;;;24.31;nan;101322.22;5033103;28;19920;-55
2022/08/19 10:13:25;;;;;;;;;;;;;;;24.83;nan;101331.34;5031596;28;19913;-54
2022/08/19 10:15:51;;;;;;;;;;;;;;;25.20;nan;101338.00;5032686;28;19917;-54
2022/08/19 10:18:18;;;;;;;;;;;;;;;25.32;nan;101344.19;5032931;28;19920;-55
2022/08/19 10:20:45;;;;;;;;;;;;;;;25.15;nan;101343.81;5031296;28;19921;-52
2022/08/19 10:23:10;;;;;;;;;;;;;;;25.11;nan;101341.50;5031299;28;20284;-54
2022/08/19 10:25:35;;;;;;;;;;;;;;;25.29;nan;101328.28;5031401;28;19913;-51
2022/08/19 10:28:01;;;;;;;;;;;;;;;25.78;nan;101333.84;5032691;28;19919;-52
2022/08/19 10:30:26;;;;;;;;;;;;;;;26.10;nan;101334.53;5032600;28;19924;-54
2022/08/19 10:32:51;;;;;;;;;;;;;;;25.94;nan;101336.91;5031279;28;19920;-50
2022/08/19 10:35:17;;;;;;;;;;;;;;;25.73;nan;101346.88;5032478;28;19916;-51
2022/08/19 10:37:42;;;;;;;;;;;;;;;25.50;nan;101351.59;5032501;28;19923;-54
2022/08/19 10:40:08;;;;;;;;;;;;;;;25.41;nan;101330.78;5031066;28;19917;-52
2022/08/19 10:42:34;;;;;;;;;;;;;;;25.70;nan;101339.91;5032890;28;19917;-51
2022/08/19 10:44:59;;;;;;;;;;;;;;;26.63;nan;101345.03;5032426;28;20435;-49
2022/08/19 10:47:25;;;;;;;;;;;;;;;27.38;nan;101347.88;5032668;28;19959;-53
2022/08/19 10:52:33;;;;;;;;;;;;;;;27.01;nan;101361.28;5032332;28;19976;-52
2022/08/19 10:57:43;;;;;;;;;;;;;;;25.57;nan;101343.78;5032593;28;19924;-51
2022/08/19 11:00:09;;;;;;;;;;;;;;;25.02;nan;101335.03;5030824;28;19921;-51
2022/08/19 11:02:34;;;;;;;;;;;;;;;24.59;nan;101339.59;5032281;28;20331;-53
2022/08/19 11:04:59;;;;;;;;;;;;;;;24.18;nan;101324.16;5032279;28;20383;-55
2022/08/19 11:07:26;;;;;;;;;;;;;;;24.02;nan;101318.31;5030725;28;19924;-56
2022/08/19 11:09:51;;;;;;;;;;;;;;;23.88;nan;101321.22;5030987;28;20269;-54
2022/08/19 11:12:16;;;;;;;;;;;;;;;23.82;nan;101310.97;5032191;28;20096;-57
2022/08/19 11:14:42;;;;;;;;;;;;;;;23.84;nan;101312.59;5030997;28;19919;-53
2022/08/19 11:17:07;;;;;;;;;;;;;;;23.90;nan;101317.47;5032355;28;19917;-58
2022/08/19 11:19:33;;;;;;;;;;;;;;;24.05;nan;101310.81;5031769;28;19913;-53
2022/08/19 11:21:59;;;;;;;;;;;;;;;24.14;nan;101324.56;5030868;28;19921;-56
2022/08/19 11:24:25;;;;;;;;;;;;;;;24.09;nan;101324.88;5031198;28;19924;-54
2022/08/19 11:26:51;;;;;;;;;;;;;;;24.04;nan;101314.50;5030297;28;19921;-55
2022/08/19 11:29:17;;;;;;;;;;;;;;;23.99;nan;101330.16;5031924;28;19920;-57
2022/08/19 11:31:44;;;;;;;;;;;;;;;23.92;nan;101326.25;5030199;28;19964;-54
2022/08/19 11:34:11;;;;;;;;;;;;;;;23.86;nan;101320.50;5030815;28;19913;-51
2022/08/19 11:36:38;;;;;;;;;;;;;;;23.86;nan;101318.69;5034581;28;19920;-53
2022/08/19 11:39:04;;;;;;;;;;;;;;;23.83;nan;101316.22;5035655;28;20311;-52
2022/08/19 11:41:29;;;;;;;;;;;;;;;23.84;nan;101315.28;5035614;28;20395;-56
2022/08/19 11:43:54;;;;;;;;;;;;;;;23.81;nan;101320.03;5035230;28;19928;-57
2022/08/19 11:46:20;;;;;;;;;;;;;;;23.78;nan;101320.28;5035447;28;19917;-56
2022/08/19 11:48:45;;;;;;;;;;;;;;;23.79;nan;101330.06;5035055;28;19921;-54
2022/08/19 11:51:12;;;;;;;;;;;;;;;23.67;nan;101328.34;5035018;28;19917;-55
2022/08/19 11:53:37;;;;;;;;;;;;;;;23.62;nan;101323.31;5033882;28;19917;-56
2022/08/19 11:56:03;;;;;;;;;;;;;;;23.59;nan;101320.00;5034011;28;20287;-58
2022/08/19 11:58:31;;;;;;;;;;;;;;;23.43;nan;101313.19;5034564;28;19913;-54
2022/08/19 12:00:57;;;;;;;;;;;;;;;23.43;nan;101312.31;5034020;28;19921;-55
2022/08/19 12:03:22;;;;;;;;;;;;;;;23.48;nan;101304.75;5034492;28;20352;-53
2022/08/19 12:05:48;;;;;;;;;;;;;;;23.74;nan;101314.28;5035130;28;20407;-53
2022/08/19 12:08:15;;;;;;;;;;;;;;;24.04;nan;101317.19;5034457;28;20360;-54
2022/08/19 12:10:41;;;;;;;;;;;;;;;24.39;nan;101325.13;5036106;28;19913;-51
2022/08/19 12:13:07;;;;;;;;;;;;;;;24.69;nan;101319.03;5034967;28;19917;-56
2022/08/19 12:15:36;;;;;;;;;;;;;;;25.07;nan;101324.72;5034846;28;20020;-57
2022/08/19 12:18:01;;;;;;;;;;;;;;;25.33;nan;101337.81;5035604;28;19920;-49
2022/08/19 12:20:26;;;;;;;;;;;;;;;25.57;nan;101335.72;5033165;28;19927;-53
2022/08/19 12:22:51;;;;;;;;;;;;;;;25.61;nan;101327.22;5034792;28;19917;-55
2022/08/19 12:25:17;;;;;;;;;;;;;;;25.58;nan;101332.88;5034541;28;19920;-56
2022/08/19 12:27:42;;;;;;;;;;;;;;;25.57;nan;101331.19;5033305;28;19924;-54
2022/08/19 12:30:08;;;;;;;;;;;;;;;25.35;nan;101325.91;5032922;28;19920;-56
2022/08/19 12:32:34;;;;;;;;;;;;;;;25.20;nan;101332.63;5034604;28;20058;-51
2022/08/19 12:34:59;;;;;;;;;;;;;;;25.05;nan;101323.16;5033396;28;19957;-54
2022/08/19 12:37:24;;;;;;;;;;;;;;;24.89;nan;101315.53;5033386;28;19917;-52
2022/08/19 12:39:49;;;;;;;;;;;;;;;24.76;nan;101316.66;5034479;28;19947;-54
2022/08/19 12:42:15;;;;;;;;;;;;;;;24.72;nan;101317.91;5033126;28;20360;-50
2022/08/19 12:44:41;;;;;;;;;;;;;;;24.72;nan;101304.44;5033988;28;19913;-54
2022/08/19 12:47:06;;;;;;;;;;;;;;;25.29;nan;101304.03;5033556;28;19967;-56
2022/08/19 12:49:33;;;;;;;;;;;;;;;26.83;nan;101319.78;5034398;28;19917;-55
2022/08/19 12:52:00;;;;;;;;;;;;;;;28.23;nan;101342.34;5032728;28;20383;-57
2022/08/19 12:54:25;;;;;;;;;;;;;;;28.56;nan;101359.81;5034274;28;20304;-54
2022/08/19 12:56:50;;;;;;;;;;;;;;;28.77;nan;101360.41;5035345;28;19921;-57
2022/08/19 12:59:17;;;;;;;;;;;;;;;28.38;nan;101360.63;5033982;28;19923;-57
2022/08/19 13:01:43;;;;;;;;;;;;;;;27.85;nan;101359.56;5034775;28;19951;-57
2022/08/19 13:04:10;;;;;;;;;;;;;;;27.32;nan;101340.38;5034055;28;20016;-55
2022/08/19 13:06:35;;;;;;;;;;;;;;;27.25;nan;101342.78;5034091;28;19967;-53
2022/08/19 13:09:01;;;;;;;;;;;;;;;27.37;nan;101330.81;5034091;28;19919;-54
2022/08/19 13:11:26;;;;;;;;;;;;;;;28.44;nan;101324.81;5033938;28;19964;-55
2022/08/19 13:13:51;;;;;;;;;;;;;;;29.50;nan;101361.91;5033621;28;20380;-56
2022/08/19 13:16:17;;;;;;;;;;;;;;;30.26;nan;101375.56;5033733;28;19948;-55
2022/08/19 13:18:43;;;;;;;;;;;;;;;30.54;nan;101382.47;5032248;28;19964;-56